Time;durP1;ratioP1;P1;durP2;ratioP2;P2;SDS_P1;SDS_P2;PMS_P1;PMS_P2;Temp;Humidity;BMP_temperature;BMP_pressure;BME280_temperature;BME280_humidity;BME280_pressure;Samples;Min_cycle;Max_cycle;Signal;HPM_P1;HPM_P2
2022/03/14 00:01:36;;;;;;;0.90;0.90;;;18.30;65.30;;;;;;4997482;28;20053;-13
2022/03/14 00:04:02;;;;;;;1.08;0.88;;;18.30;65.10;;;;;;5001589;28;20053;-14
2022/03/14 00:06:28;;;;;;;2.53;1.00;;;18.30;65.10;;;;;;5007010;28;20554;-13
2022/03/14 00:08:55;;;;;;;1.02;0.93;;;18.30;65.20;;;;;;5002031;28;20491;-14
2022/03/14 00:11:22;;;;;;;1.08;0.93;;;18.30;65.30;;;;;;4997958;28;20038;-12
2022/03/14 00:13:47;;;;;;;1.00;0.90;;;18.30;65.10;;;;;;5011099;28;20050;-13
2022/03/14 00:16:17;;;;;;;1.10;0.75;;;18.20;65.20;;;;;;5006248;28;20050;-17
2022/03/14 00:18:46;;;;;;;1.27;0.88;;;18.20;65.00;;;;;;4991853;28;20112;-13
2022/03/14 00:21:11;;;;;;;1.00;0.88;;;18.30;65.00;;;;;;5009978;28;20498;-13
2022/03/14 00:23:37;;;;;;;0.93;0.90;;;18.20;65.00;;;;;;5011297;28;20038;-12
2022/03/14 00:26:06;;;;;;;1.40;0.95;;;18.20;65.00;;;;;;4998068;28;20129;-14
2022/03/14 00:28:31;;;;;;;1.33;0.80;;;18.20;64.80;;;;;;5001583;28;20058;-14
2022/03/14 00:30:57;;;;;;;1.13;0.70;;;18.20;64.90;;;;;;5001239;28;20046;-13
2022/03/14 00:33:23;;;;;;;0.60;0.60;;;18.20;64.90;;;;;;5001482;28;20411;-12
2022/03/14 00:35:49;;;;;;;1.05;0.95;;;18.20;64.80;;;;;;4994940;28;20050;-15
2022/03/14 00:38:15;;;;;;;0.77;0.77;;;18.20;64.90;;;;;;5000121;28;20065;-13
2022/03/14 00:40:41;;;;;;;0.60;0.60;;;18.20;64.80;;;;;;5007809;28;20034;-13
2022/03/14 00:43:07;;;;;;;1.27;0.90;;;18.20;64.80;;;;;;4996364;28;20054;-14
2022/03/14 00:45:34;;;;;;;1.08;0.60;;;18.20;64.90;;;;;;5007187;28;20035;-13
2022/03/14 00:48:00;;;;;;;0.93;0.75;;;18.20;64.70;;;;;;4995005;28;20105;-14
2022/03/14 00:50:26;;;;;;;1.00;0.90;;;18.20;64.60;;;;;;4997397;28;20042;-14
2022/03/14 00:52:52;;;;;;;0.75;0.70;;;18.20;64.60;;;;;;5006173;28;20045;-13
2022/03/14 00:55:17;;;;;;;0.73;0.65;;;18.20;64.70;;;;;;5012422;28;20045;-13
2022/03/14 00:57:43;;;;;;;1.10;0.95;;;18.20;64.70;;;;;;4998769;28;20096;-14
2022/03/14 01:00:09;;;;;;;1.58;1.35;;;18.10;64.80;;;;;;5000543;28;20050;-13
2022/03/14 01:02:34;;;;;;;0.90;0.80;;;18.20;64.70;;;;;;5002251;28;20042;-13
2022/03/14 01:05:00;;;;;;;1.02;0.93;;;18.20;64.70;;;;;;5006756;28;20053;-14
2022/03/14 01:07:26;;;;;;;1.20;1.10;;;18.20;65.10;;;;;;5008175;28;20113;-12
2022/03/14 01:09:51;;;;;;;0.82;0.82;;;18.10;65.00;;;;;;4990767;28;20039;-16
2022/03/14 01:12:17;;;;;;;1.17;0.95;;;18.10;65.10;;;;;;4985328;28;20073;-14
2022/03/14 01:14:43;;;;;;;1.42;0.68;;;18.10;64.80;;;;;;4984012;28;20528;-13
2022/03/14 01:17:10;;;;;;;1.05;0.80;;;18.10;64.70;;;;;;4980118;28;20462;-13
2022/03/14 01:19:38;;;;;;;1.10;0.80;;;18.10;65.50;;;;;;4985357;28;20073;-14
2022/03/14 01:22:10;;;;;;;0.90;0.80;;;18.10;64.60;;;;;;4995942;28;20046;-13
2022/03/14 01:24:38;;;;;;;1.70;1.00;;;18.10;64.60;;;;;;4997979;28;20174;-13
2022/03/14 01:27:04;;;;;;;0.85;0.85;;;18.10;64.80;;;;;;4996549;28;20054;-12
2022/03/14 01:29:29;;;;;;;1.73;1.00;;;18.10;64.60;;;;;;4997953;28;20052;-13
2022/03/14 01:31:55;;;;;;;1.20;1.10;;;18.10;64.70;;;;;;4992441;28;20076;-13
2022/03/14 01:34:21;;;;;;;1.70;0.70;;;18.10;64.60;;;;;;4978422;28;20130;-14
2022/03/14 01:36:47;;;;;;;1.13;1.02;;;18.10;64.70;;;;;;4978168;28;20061;-13
2022/03/14 01:39:12;;;;;;;0.70;0.65;;;18.10;64.70;;;;;;4992466;28;20512;-13
2022/03/14 01:41:38;;;;;;;0.98;0.70;;;18.00;64.70;;;;;;4997698;28;20090;-14
2022/03/14 01:44:04;;;;;;;0.60;0.60;;;18.10;64.60;;;;;;4997038;28;20042;-14
2022/03/14 01:46:29;;;;;;;1.15;1.05;;;18.00;64.80;;;;;;4997460;28;20051;-13
2022/03/14 01:48:56;;;;;;;0.80;0.70;;;18.00;64.80;;;;;;4996243;28;20050;-13
2022/03/14 01:51:23;;;;;;;1.20;0.70;;;18.00;64.70;;;;;;4997207;28;20044;-13
2022/03/14 01:53:49;;;;;;;0.70;0.70;;;18.00;64.60;;;;;;4991337;28;20038;-13
2022/03/14 01:56:14;;;;;;;0.75;0.70;;;18.00;64.70;;;;;;4983475;28;20049;-12
2022/03/14 01:58:40;;;;;;;0.60;0.60;;;18.00;64.80;;;;;;4985134;28;20034;-14
2022/03/14 02:01:06;;;;;;;0.80;0.70;;;18.00;64.70;;;;;;4978966;28;20156;-13
2022/03/14 02:03:32;;;;;;;0.77;0.77;;;17.90;64.70;;;;;;4996474;28;20043;-13
2022/03/14 02:05:58;;;;;;;0.88;0.65;;;18.00;64.80;;;;;;4996616;28;20129;-13
2022/03/14 02:08:23;;;;;;;1.27;0.73;;;18.00;64.70;;;;;;4983430;28;20042;-14
2022/03/14 02:10:49;;;;;;;1.02;0.70;;;18.00;64.70;;;;;;4978064;28;20046;-14
2022/03/14 02:13:15;;;;;;;0.80;0.70;;;18.00;64.80;;;;;;4996362;28;20100;-13
2022/03/14 02:15:41;;;;;;;1.08;0.98;;;18.00;64.80;;;;;;4996138;28;20065;-13
2022/03/14 02:18:07;;;;;;;1.13;0.90;;;17.90;64.60;;;;;;4996191;28;20054;-14
2022/03/14 02:20:33;;;;;;;0.80;0.60;;;17.90;64.70;;;;;;4996257;28;20050;-13
2022/03/14 02:22:58;;;;;;;0.57;0.57;;;17.90;64.60;;;;;;4996201;28;20046;-13
2022/03/14 02:25:24;;;;;;;0.73;0.70;;;17.90;64.70;;;;;;4993926;28;20492;-13
2022/03/14 02:27:50;;;;;;;0.80;0.80;;;17.90;64.70;;;;;;4977384;28;20105;-13
2022/03/14 02:30:15;;;;;;;0.88;0.63;;;17.90;64.60;;;;;;4981846;28;20050;-13
2022/03/14 02:32:42;;;;;;;0.60;0.60;;;17.90;64.70;;;;;;4996595;28;20038;-13
2022/03/14 02:35:08;;;;;;;0.90;0.85;;;17.90;64.70;;;;;;4995378;28;20479;-14
2022/03/14 02:37:34;;;;;;;0.80;0.60;;;17.90;64.80;;;;;;4996535;28;20526;-12
2022/03/14 02:40:00;;;;;;;0.90;0.82;;;17.90;64.70;;;;;;4995882;28;20407;-13
2022/03/14 02:42:25;;;;;;;1.45;0.95;;;17.90;64.80;;;;;;4996635;28;20522;-12
2022/03/14 02:44:51;;;;;;;0.90;0.85;;;17.80;64.80;;;;;;4995683;28;20070;-13
2022/03/14 02:47:17;;;;;;;0.60;0.60;;;17.90;64.70;;;;;;4995812;28;20049;-14
2022/03/14 02:49:42;;;;;;;0.70;0.70;;;17.90;64.80;;;;;;4996176;28;20066;-14
2022/03/14 02:52:08;;;;;;;0.40;0.40;;;17.90;64.80;;;;;;4992981;28;20046;-12
2022/03/14 02:54:33;;;;;;;0.73;0.70;;;17.80;64.80;;;;;;4976994;28;20049;-13
2022/03/14 02:56:59;;;;;;;1.85;0.68;;;17.90;64.90;;;;;;4976300;28;20049;-14
2022/03/14 02:59:26;;;;;;;0.85;0.85;;;17.90;64.80;;;;;;4985230;28;20106;-13
2022/03/14 03:01:51;;;;;;;0.90;0.80;;;17.90;64.80;;;;;;4995996;28;20058;-13
2022/03/14 03:04:17;;;;;;;0.63;0.50;;;17.80;64.80;;;;;;4995724;28;20081;-13
2022/03/14 03:06:43;;;;;;;0.90;0.90;;;17.80;64.80;;;;;;4996135;28;20050;-14
2022/03/14 03:09:08;;;;;;;1.02;0.90;;;17.80;64.80;;;;;;4994919;28;20514;-13
2022/03/14 03:11:34;;;;;;;0.60;0.60;;;17.80;64.80;;;;;;4996249;28;20660;-13
2022/03/14 03:14:01;;;;;;;0.85;0.82;;;17.80;64.80;;;;;;4985149;28;20042;-14
2022/03/14 03:16:26;;;;;;;0.77;0.70;;;17.80;64.80;;;;;;4976930;28;20054;-14
2022/03/14 03:18:52;;;;;;;0.60;0.60;;;17.80;64.80;;;;;;4976363;28;20046;-13
2022/03/14 03:21:18;;;;;;;1.38;0.70;;;17.80;64.80;;;;;;4985945;28;20038;-13
2022/03/14 03:23:43;;;;;;;0.80;0.80;;;17.80;64.80;;;;;;4995939;28;20039;-12
2022/03/14 03:26:09;;;;;;;0.90;0.90;;;17.80;64.80;;;;;;4995464;28;20491;-14
2022/03/14 03:28:37;;;;;;;0.57;0.57;;;17.80;64.80;;;;;;4991743;28;20558;-13
2022/03/14 03:31:10;;;;;;;1.00;0.70;;;17.80;64.80;;;;;;4987387;28;20081;-14
2022/03/14 03:33:36;;;;;;;1.00;0.70;;;17.80;64.80;;;;;;4996041;28;20050;-13
2022/03/14 03:36:06;;;;;;;0.60;0.52;;;17.80;64.90;;;;;;4993994;28;20056;-16
2022/03/14 03:38:31;;;;;;;0.77;0.77;;;17.80;64.90;;;;;;4986184;28;20042;-12
2022/03/14 03:40:57;;;;;;;0.65;0.65;;;17.80;64.80;;;;;;4995858;28;20045;-13
2022/03/14 03:43:23;;;;;;;0.77;0.70;;;17.80;64.80;;;;;;4994037;28;20042;-13
2022/03/14 03:45:48;;;;;;;0.57;0.57;;;17.80;64.90;;;;;;4995063;28;20220;-12
2022/03/14 03:48:14;;;;;;;0.75;0.50;;;17.80;64.90;;;;;;4995247;28;20046;-12
2022/03/14 03:50:40;;;;;;;0.73;0.73;;;17.80;64.90;;;;;;4995398;28;20043;-13
2022/03/14 03:53:06;;;;;;;1.73;1.05;;;17.80;64.80;;;;;;4994843;28;20035;-13
2022/03/14 03:55:31;;;;;;;0.63;0.63;;;17.70;64.80;;;;;;4995747;28;20101;-14
2022/03/14 03:57:57;;;;;;;0.82;0.82;;;17.70;64.80;;;;;;4994989;28;20062;-13
2022/03/14 04:00:23;;;;;;;0.70;0.68;;;17.70;64.80;;;;;;4993592;28;20050;-14
2022/03/14 04:02:50;;;;;;;0.80;0.80;;;17.70;64.80;;;;;;4999043;28;20053;-13
2022/03/14 04:05:20;;;;;;;0.50;0.50;;;17.70;64.80;;;;;;4998162;28;20415;-14
2022/03/14 04:07:46;;;;;;;0.70;0.70;;;17.70;64.80;;;;;;4979826;28;20039;-14
2022/03/14 04:10:12;;;;;;;0.80;0.57;;;17.70;64.80;;;;;;4986289;28;20108;-13
2022/03/14 04:12:39;;;;;;;0.77;0.50;;;17.70;64.90;;;;;;4999320;28;20100;-13
2022/03/14 04:15:09;;;;;;;0.50;0.50;;;17.70;64.80;;;;;;4998570;28;20069;-13
2022/03/14 04:17:37;;;;;;;1.20;0.70;;;17.70;64.80;;;;;;4999223;28;20121;-13
2022/03/14 04:20:06;;;;;;;1.77;0.80;;;17.70;64.90;;;;;;4997677;28;20050;-14
2022/03/14 04:22:34;;;;;;;0.77;0.77;;;17.70;64.90;;;;;;4999056;28;20101;-13
2022/03/14 04:24:59;;;;;;;0.50;0.50;;;17.70;65.00;;;;;;4997400;28;20141;-12
2022/03/14 04:27:26;;;;;;;1.45;0.85;;;17.70;65.00;;;;;;4998414;28;20062;-14
2022/03/14 04:29:51;;;;;;;0.85;0.70;;;17.70;65.00;;;;;;4997671;28;20050;-12
2022/03/14 04:32:17;;;;;;;0.73;0.65;;;17.70;64.90;;;;;;4998344;28;20137;-12
2022/03/14 04:34:43;;;;;;;0.50;0.50;;;17.70;64.80;;;;;;4998889;28;20042;-13
2022/03/14 04:37:09;;;;;;;0.70;0.60;;;17.70;64.90;;;;;;4997436;28;20147;-14
2022/03/14 04:39:34;;;;;;;0.63;0.55;;;17.70;65.00;;;;;;4998633;28;20053;-12
2022/03/14 04:42:00;;;;;;;0.60;0.60;;;17.70;65.00;;;;;;4998722;28;20053;-13
2022/03/14 04:44:26;;;;;;;0.73;0.73;;;17.60;64.90;;;;;;4997469;28;20070;-13
2022/03/14 04:46:51;;;;;;;1.27;0.95;;;17.60;64.90;;;;;;4998423;28;20077;-13
2022/03/14 04:49:17;;;;;;;0.60;0.60;;;17.60;64.80;;;;;;4997933;28;20042;-14
2022/03/14 04:51:43;;;;;;;1.20;0.85;;;17.60;64.80;;;;;;4997886;28;20097;-13
2022/03/14 04:54:09;;;;;;;0.82;0.82;;;17.60;64.80;;;;;;4997926;28;20076;-13
2022/03/14 04:56:34;;;;;;;1.52;0.50;;;17.70;64.80;;;;;;4998008;28;20125;-13
2022/03/14 04:59:00;;;;;;;0.50;0.50;;;17.70;64.80;;;;;;4998394;28;20046;-13
2022/03/14 05:01:26;;;;;;;0.60;0.60;;;17.60;64.80;;;;;;4998274;28;20097;-13
2022/03/14 05:03:52;;;;;;;1.02;0.70;;;17.60;64.80;;;;;;4997640;28;20046;-14
2022/03/14 05:06:21;;;;;;;0.85;0.60;;;17.60;64.90;;;;;;4997745;28;20045;-13
2022/03/14 05:08:47;;;;;;;0.50;0.50;;;17.60;64.80;;;;;;4998238;28;20129;-13
2022/03/14 05:11:14;;;;;;;0.77;0.63;;;17.60;64.80;;;;;;4990051;28;20073;-12
2022/03/14 05:13:39;;;;;;;0.95;0.60;;;17.60;64.80;;;;;;4978422;28;20050;-13
2022/03/14 05:16:05;;;;;;;0.90;0.60;;;17.60;64.80;;;;;;4978578;28;20046;-14
2022/03/14 05:18:31;;;;;;;0.55;0.50;;;17.60;64.90;;;;;;4978177;28;20086;-13
2022/03/14 05:20:57;;;;;;;0.63;0.60;;;17.60;64.90;;;;;;4978726;28;20179;-13
2022/03/14 05:23:23;;;;;;;1.00;0.45;;;17.60;64.90;;;;;;4978295;28;20531;-13
2022/03/14 05:25:49;;;;;;;0.73;0.63;;;17.60;64.90;;;;;;4978713;28;20043;-14
2022/03/14 05:28:14;;;;;;;0.88;0.80;;;17.60;64.90;;;;;;4977915;28;20049;-13
2022/03/14 05:30:40;;;;;;;0.70;0.70;;;17.50;64.80;;;;;;4986876;28;20038;-14
2022/03/14 05:33:06;;;;;;;0.70;0.60;;;17.60;64.90;;;;;;4980540;28;20412;-13
2022/03/14 05:35:31;;;;;;;0.65;0.65;;;17.50;64.90;;;;;;4977687;28;20070;-13
2022/03/14 05:37:57;;;;;;;0.75;0.60;;;17.50;64.90;;;;;;4983891;28;20046;-13
2022/03/14 05:40:23;;;;;;;0.85;0.60;;;17.50;64.90;;;;;;4997077;28;20142;-13
2022/03/14 05:42:49;;;;;;;0.63;0.50;;;17.50;64.80;;;;;;4982028;28;20100;-13
2022/03/14 05:45:15;;;;;;;0.73;0.50;;;17.50;64.80;;;;;;4977554;28;20035;-13
2022/03/14 05:47:41;;;;;;;2.55;0.73;;;17.50;64.80;;;;;;4996594;28;20086;-14
2022/03/14 05:50:07;;;;;;;0.60;0.60;;;17.50;64.80;;;;;;4992941;28;20046;-13
2022/03/14 05:52:32;;;;;;;0.80;0.60;;;17.50;64.80;;;;;;4977500;28;20051;-13
2022/03/14 05:54:58;;;;;;;0.77;0.63;;;17.50;64.80;;;;;;4987637;28;20045;-12
2022/03/14 05:57:24;;;;;;;0.50;0.50;;;17.50;64.80;;;;;;4996895;28;20073;-13
2022/03/14 05:59:50;;;;;;;0.52;0.52;;;17.50;64.80;;;;;;4997188;28;20626;-13
2022/03/14 06:02:22;;;;;;;0.45;0.45;;;17.50;64.80;;;;;;4995942;28;20061;-13
2022/03/14 06:04:52;;;;;;;1.02;0.73;;;17.50;64.80;;;;;;4997417;28;20066;-12
2022/03/14 06:07:21;;;;;;;0.50;0.40;;;17.50;64.80;;;;;;4995961;28;20034;-13
2022/03/14 06:09:50;;;;;;;0.70;0.70;;;17.50;64.80;;;;;;4997251;28;20045;-13
2022/03/14 06:12:28;;;;;;;0.60;0.60;;;17.50;64.80;;;;;;4996495;28;20411;-13
2022/03/14 06:14:58;;;;;;;0.93;0.63;;;17.50;64.80;;;;;;4997018;28;20561;-13
2022/03/14 06:17:24;;;;;;;1.17;0.70;;;17.50;64.90;;;;;;4995757;28;20504;-12
2022/03/14 06:19:49;;;;;;;0.50;0.50;;;17.50;64.90;;;;;;4996726;28;20514;-13
2022/03/14 06:22:18;;;;;;;1.30;0.93;;;17.50;64.80;;;;;;4996269;28;20133;-13
2022/03/14 06:24:47;;;;;;;0.68;0.57;;;17.50;64.80;;;;;;4996288;28;20074;-13
2022/03/14 06:27:17;;;;;;;1.27;0.70;;;17.50;64.80;;;;;;4996106;28;20062;-13
2022/03/14 06:29:43;;;;;;;0.75;0.52;;;17.40;64.80;;;;;;4996750;28;20047;-13
2022/03/14 06:32:09;;;;;;;0.43;0.40;;;17.50;64.80;;;;;;4996148;28;20058;-14
2022/03/14 06:34:35;;;;;;;0.55;0.50;;;17.50;64.80;;;;;;4996324;28;20050;-13
2022/03/14 06:37:08;;;;;;;0.67;0.65;;;17.50;64.80;;;;;;4888816;28;10001156;-13
2022/03/14 06:39:37;;;;;;;1.10;0.73;;;17.50;64.80;;;;;;4974480;28;20236;-13
2022/03/14 06:42:08;;;;;;;0.70;0.55;;;17.50;64.70;;;;;;5008648;28;20045;-12
2022/03/14 06:44:36;;;;;;;0.77;0.60;;;17.50;64.60;;;;;;4999729;28;20057;-14
2022/03/14 06:47:01;;;;;;;0.88;0.80;;;17.50;64.70;;;;;;5007339;28;20107;-13
2022/03/14 06:49:27;;;;;;;0.68;0.68;;;17.50;64.70;;;;;;4991422;28;20042;-14
2022/03/14 06:51:52;;;;;;;0.80;0.80;;;17.50;64.80;;;;;;4989148;28;20042;-14
2022/03/14 06:54:18;;;;;;;0.60;0.60;;;17.50;65.00;;;;;;4994469;28;20039;-14
2022/03/14 06:56:44;;;;;;;1.05;0.63;;;17.40;65.10;;;;;;5005907;28;20092;-14
2022/03/14 06:59:10;;;;;;;0.95;0.80;;;17.40;65.20;;;;;;4999406;28;20871;-14
2022/03/14 07:01:36;;;;;;;0.75;0.60;;;17.40;65.20;;;;;;4997414;28;20466;-14
2022/03/14 07:04:02;;;;;;;0.65;0.65;;;17.50;65.20;;;;;;4983483;28;20117;-12
2022/03/14 07:06:28;;;;;;;0.55;0.50;;;17.40;65.30;;;;;;4987441;28;20641;-13
2022/03/14 07:08:54;;;;;;;0.80;0.73;;;17.40;65.30;;;;;;4987145;28;20132;-14
2022/03/14 07:11:19;;;;;;;0.70;0.70;;;17.40;65.20;;;;;;4989332;28;20065;-13
2022/03/14 07:13:45;;;;;;;0.63;0.63;;;17.50;65.10;;;;;;4980967;28;20447;-13
2022/03/14 07:16:10;;;;;;;1.02;0.70;;;17.50;64.90;;;;;;4984966;28;20495;-13
2022/03/14 07:18:36;;;;;;;1.13;0.63;;;17.50;65.00;;;;;;4989866;28;20057;-13
2022/03/14 07:21:02;;;;;;;0.88;0.60;;;17.40;65.00;;;;;;4982627;28;20050;-12
2022/03/14 07:23:27;;;;;;;2.88;0.73;;;17.40;65.00;;;;;;4985908;28;20050;-13
2022/03/14 07:25:53;;;;;;;0.50;0.50;;;17.50;64.80;;;;;;4990066;28;20034;-13
2022/03/14 07:28:19;;;;;;;1.40;0.70;;;17.50;64.80;;;;;;4985261;28;20129;-13
2022/03/14 07:30:45;;;;;;;0.60;0.60;;;17.50;65.00;;;;;;4991068;28;20042;-14
2022/03/14 07:33:11;;;;;;;0.93;0.77;;;17.50;64.50;;;;;;4986545;28;20093;-13
2022/03/14 07:35:36;;;;;;;0.50;0.50;;;17.50;64.60;;;;;;4990246;28;20042;-14
2022/03/14 07:38:03;;;;;;;0.60;0.60;;;17.50;64.70;;;;;;4993352;28;20567;-13
2022/03/14 07:40:29;;;;;;;1.90;0.50;;;17.50;64.80;;;;;;4991144;28;20602;-13
2022/03/14 07:42:56;;;;;;;0.50;0.50;;;17.50;64.70;;;;;;4997299;28;20403;-14
2022/03/14 07:45:24;;;;;;;0.80;0.60;;;17.50;64.80;;;;;;4991937;28;20428;-14
2022/03/14 07:47:49;;;;;;;0.95;0.80;;;17.50;64.70;;;;;;4992549;28;20569;-12
2022/03/14 07:50:15;;;;;;;0.90;0.80;;;17.50;64.70;;;;;;4989021;28;20474;-14
2022/03/14 07:52:41;;;;;;;0.65;0.60;;;17.50;64.70;;;;;;4992811;28;20109;-13
2022/03/14 07:55:07;;;;;;;0.60;0.60;;;17.50;64.60;;;;;;4988189;28;20047;-13
2022/03/14 07:57:34;;;;;;;0.60;0.60;;;17.50;64.60;;;;;;4992209;28;20085;-13
2022/03/14 08:00:00;;;;;;;0.60;0.60;;;17.50;64.50;;;;;;4990220;28;20057;-13
2022/03/14 08:02:26;;;;;;;0.50;0.50;;;17.50;64.50;;;;;;4994696;28;20074;-14
2022/03/14 08:04:51;;;;;;;2.58;1.08;;;17.50;64.50;;;;;;4987380;28;20412;-12
2022/03/14 08:07:18;;;;;;;0.65;0.60;;;17.60;64.50;;;;;;4997027;28;20049;-13
2022/03/14 08:09:43;;;;;;;0.60;0.60;;;17.50;64.50;;;;;;4997763;28;20077;-13
2022/03/14 08:12:11;;;;;;;0.70;0.65;;;17.50;64.40;;;;;;4997756;28;20082;-13
2022/03/14 08:14:36;;;;;;;0.73;0.60;;;17.50;64.30;;;;;;4985304;28;20049;-14
2022/03/14 08:17:02;;;;;;;0.98;0.60;;;17.50;64.30;;;;;;4997565;28;20129;-13
2022/03/14 08:19:28;;;;;;;0.75;0.50;;;17.60;64.30;;;;;;4997377;28;20065;-14
2022/03/14 08:21:54;;;;;;;0.50;0.50;;;17.60;64.30;;;;;;4997273;28;20527;-13
2022/03/14 08:24:20;;;;;;;0.60;0.60;;;17.50;64.20;;;;;;4998038;28;20476;-12
2022/03/14 08:26:45;;;;;;;0.63;0.63;;;17.60;64.30;;;;;;4998618;28;20065;-13
2022/03/14 08:29:11;;;;;;;0.60;0.60;;;17.60;64.10;;;;;;4995080;28;20057;-12
2022/03/14 08:31:37;;;;;;;0.63;0.63;;;17.60;64.40;;;;;;5011750;28;20055;-13
2022/03/14 08:34:02;;;;;;;0.77;0.68;;;17.60;64.40;;;;;;4993417;28;20046;-13
2022/03/14 08:36:28;;;;;;;0.70;0.70;;;17.60;64.40;;;;;;4993510;28;20038;-13
2022/03/14 08:38:54;;;;;;;1.30;0.77;;;17.60;64.30;;;;;;4993787;28;20042;-13
2022/03/14 08:41:20;;;;;;;0.70;0.70;;;17.60;64.20;;;;;;4994537;28;20049;-12
2022/03/14 08:43:45;;;;;;;0.70;0.65;;;17.60;64.30;;;;;;4997048;28;20050;-13
2022/03/14 08:46:11;;;;;;;0.80;0.65;;;17.70;64.20;;;;;;4991733;28;20519;-13
2022/03/14 08:48:37;;;;;;;1.20;0.90;;;17.60;64.30;;;;;;4985300;28;20136;-13
2022/03/14 08:51:03;;;;;;;0.68;0.68;;;17.60;64.50;;;;;;4991025;28;20539;-14
2022/03/14 08:53:29;;;;;;;0.63;0.63;;;17.60;64.50;;;;;;4988937;28;20077;-14
2022/03/14 08:55:55;;;;;;;0.68;0.50;;;17.70;64.60;;;;;;4990617;28;20042;-12
2022/03/14 08:58:21;;;;;;;0.57;0.43;;;17.70;64.70;;;;;;4988441;28;20514;-13
2022/03/14 09:00:47;;;;;;;0.68;0.65;;;17.80;64.50;;;;;;4993595;28;20519;-14
2022/03/14 09:03:13;;;;;;;0.82;0.73;;;17.70;64.40;;;;;;4993245;28;20523;-14
2022/03/14 09:05:38;;;;;;;0.50;0.47;;;17.70;64.40;;;;;;4989879;28;20471;-13
2022/03/14 09:08:04;;;;;;;0.70;0.65;;;17.70;64.30;;;;;;4988618;28;20046;-15
2022/03/14 09:10:36;;;;;;;0.95;0.60;;;17.70;64.10;;;;;;4992056;28;20411;-13
2022/03/14 09:13:02;;;;;;;1.05;0.68;;;17.70;63.80;;;;;;4992948;28;20050;-13
2022/03/14 09:15:28;;;;;;;0.50;0.50;;;17.70;63.80;;;;;;4990255;28;20415;-13
2022/03/14 09:17:56;;;;;;;1.02;0.73;;;17.80;63.90;;;;;;4994506;28;20038;-13
2022/03/14 09:20:24;;;;;;;1.33;0.70;;;17.80;63.90;;;;;;4996488;28;20061;-16
2022/03/14 09:22:50;;;;;;;1.13;0.60;;;17.80;63.60;;;;;;4995998;28;20414;-14
2022/03/14 09:25:16;;;;;;;0.47;0.47;;;17.90;63.40;;;;;;4996484;28;20138;-14
2022/03/14 09:27:42;;;;;;;0.70;0.57;;;17.90;63.50;;;;;;4995906;28;20126;-13
2022/03/14 09:30:10;;;;;;;0.93;0.70;;;18.00;63.50;;;;;;4997199;28;20447;-13
2022/03/14 09:32:36;;;;;;;0.60;0.60;;;18.00;63.30;;;;;;4993601;28;20049;-12
2022/03/14 09:35:03;;;;;;;1.05;0.85;;;18.00;63.30;;;;;;4990625;28;20137;-13
2022/03/14 09:37:29;;;;;;;1.67;0.77;;;18.00;63.20;;;;;;4984185;28;20594;-13
2022/03/14 09:39:55;;;;;;;0.55;0.50;;;18.00;63.10;;;;;;4993136;28;20511;-14
2022/03/14 09:42:21;;;;;;;0.90;0.60;;;18.00;62.90;;;;;;4995513;28;20396;-14
2022/03/14 09:44:53;;;;;;;0.70;0.70;;;18.10;63.00;;;;;;4978323;28;20058;-13
2022/03/14 09:47:19;;;;;;;0.50;0.50;;;18.10;62.80;;;;;;4991279;28;20443;-14
2022/03/14 09:49:45;;;;;;;1.98;0.70;;;18.10;62.90;;;;;;4985594;28;20093;-12
2022/03/14 09:52:11;;;;;;;0.60;0.60;;;18.10;62.60;;;;;;4973863;28;20078;-13
2022/03/14 09:54:36;;;;;;;0.80;0.63;;;18.10;62.60;;;;;;4989618;28;20161;-13
2022/03/14 09:57:02;;;;;;;1.25;0.90;;;18.20;62.70;;;;;;4994093;28;20133;-14
2022/03/14 09:59:28;;;;;;;1.25;0.70;;;18.20;62.60;;;;;;4993194;28;20499;-14
2022/03/14 10:01:53;;;;;;;0.50;0.43;;;18.20;62.40;;;;;;4995610;28;20042;-12
2022/03/14 10:04:19;;;;;;;0.60;0.52;;;18.20;62.50;;;;;;4983634;28;20125;-13
2022/03/14 10:06:44;;;;;;;1.13;0.70;;;18.30;62.60;;;;;;4996168;28;20042;-13
2022/03/14 10:09:10;;;;;;;0.70;0.70;;;18.30;62.50;;;;;;4996982;28;20407;-13
2022/03/14 10:11:35;;;;;;;0.60;0.60;;;18.30;62.40;;;;;;4984109;28;20063;-14
2022/03/14 10:14:03;;;;;;;0.60;0.50;;;18.30;62.30;;;;;;5000335;28;20042;-13
2022/03/14 10:16:28;;;;;;;0.55;0.50;;;18.30;62.30;;;;;;4995833;28;20133;-13
2022/03/14 10:19:07;;;;;;;0.73;0.73;;;18.40;62.40;;;;;;4996089;28;20077;-14
2022/03/14 10:21:37;;;;;;;0.73;0.60;;;18.40;62.30;;;;;;4994564;28;20049;-14
2022/03/14 10:24:12;;;;;;;0.60;0.40;;;18.40;62.30;;;;;;4991267;28;20046;-13
2022/03/14 10:26:44;;;;;;;0.47;0.47;;;18.40;62.30;;;;;;4982215;28;20046;-13
2022/03/14 10:29:12;;;;;;;0.65;0.50;;;18.50;62.10;;;;;;4990512;28;20074;-13
2022/03/14 10:31:45;;;;;;;0.80;0.63;;;18.50;62.20;;;;;;4991811;28;20487;-14
2022/03/14 10:34:15;;;;;;;4.78;1.00;;;18.50;62.10;;;;;;4996310;28;20042;-14
2022/03/14 10:36:45;;;;;;;0.95;0.70;;;18.50;62.30;;;;;;4986422;28;20047;-14
2022/03/14 10:39:11;;;;;;;0.60;0.50;;;18.50;62.20;;;;;;4996139;28;20064;-13
2022/03/14 10:41:39;;;;;;;0.50;0.50;;;18.50;62.40;;;;;;4984391;28;20053;-13
2022/03/14 10:44:04;;;;;;;0.73;0.50;;;18.50;62.40;;;;;;4995209;28;20057;-14
2022/03/14 10:46:30;;;;;;;0.77;0.60;;;18.50;62.50;;;;;;4994285;28;20042;-14
2022/03/14 10:48:55;;;;;;;1.33;0.63;;;18.50;63.50;;;;;;4996456;28;20049;-14
2022/03/14 10:51:22;;;;;;;1.25;0.40;;;18.50;62.60;;;;;;4995894;28;20110;-14
2022/03/14 10:53:48;;;;;;;0.50;0.50;;;18.60;62.60;;;;;;4991959;28;20076;-13
2022/03/14 10:56:17;;;;;;;0.88;0.63;;;18.60;62.50;;;;;;4995308;28;20042;-13
2022/03/14 10:58:43;;;;;;;0.73;0.63;;;18.70;62.60;;;;;;4992976;28;20043;-14
2022/03/14 11:01:10;;;;;;;0.60;0.60;;;18.70;62.50;;;;;;4986370;28;20507;-16
2022/03/14 11:03:42;;;;;;;1.27;0.60;;;18.70;62.60;;;;;;4988994;28;20038;-15
2022/03/14 11:06:09;;;;;;;0.60;0.60;;;18.70;62.50;;;;;;4986355;28;20065;-16
2022/03/14 11:08:41;;;;;;;0.77;0.50;;;18.80;62.50;;;;;;4978893;28;20089;-15
2022/03/14 11:11:10;;;;;;;0.88;0.45;;;18.80;62.50;;;;;;4980975;28;20559;-16
2022/03/14 11:13:43;;;;;;;5.20;0.50;;;18.80;62.50;;;;;;4981010;28;20153;-15
2022/03/14 11:16:28;;;;;;;0.80;0.50;;;18.80;62.40;;;;;;4981325;28;20064;-16
2022/03/14 11:18:54;;;;;;;1.23;0.65;;;18.80;62.10;;;;;;4979670;28;20054;-16
2022/03/14 11:21:26;;;;;;;0.60;0.47;;;18.80;62.10;;;;;;4981148;28;20058;-16
2022/03/14 11:23:52;;;;;;;0.60;0.40;;;18.90;62.30;;;;;;4979923;28;20050;-16
2022/03/14 11:26:23;;;;;;;0.55;0.45;;;18.90;62.10;;;;;;4981975;28;20050;-16
2022/03/14 11:28:49;;;;;;;0.50;0.40;;;18.90;62.00;;;;;;4979573;28;20438;-15
2022/03/14 11:31:17;;;;;;;0.47;0.47;;;18.90;61.90;;;;;;4980707;28;20070;-15
2022/03/14 11:33:43;;;;;;;1.30;0.60;;;18.90;61.90;;;;;;4982223;28;20050;-16
2022/03/14 11:36:09;;;;;;;1.02;0.40;;;19.00;61.90;;;;;;4987547;28;20817;-15
2022/03/14 11:38:35;;;;;;;2.75;0.40;;;19.00;61.80;;;;;;4979228;28;20046;-16
2022/03/14 11:41:01;;;;;;;0.63;0.60;;;19.00;61.50;;;;;;4981206;28;20148;-16
2022/03/14 11:43:27;;;;;;;0.40;0.40;;;19.00;61.40;;;;;;4980110;28;20124;-14
2022/03/14 11:45:52;;;;;;;0.60;0.60;;;19.10;61.50;;;;;;4980942;28;20050;-16
2022/03/14 11:48:18;;;;;;;7.95;0.50;;;19.10;61.30;;;;;;4978921;28;20050;-16
2022/03/14 11:51:03;;;;;;;0.80;0.50;;;19.10;61.10;;;;;;4980420;28;20054;-16
2022/03/14 11:53:34;;;;;;;0.73;0.50;;;19.10;61.10;;;;;;4984367;28;20075;-17
2022/03/14 11:56:02;;;;;;;1.38;0.50;;;19.20;61.10;;;;;;4646660;28;9999951;-13
2022/03/14 11:58:31;;;;;;;0.95;0.60;;;19.20;61.30;;;;;;4991473;28;20523;-13
2022/03/14 12:00:57;;;;;;;0.40;0.40;;;19.10;61.30;;;;;;4991231;28;20053;-13
2022/03/14 12:03:41;;;;;;;0.80;0.65;;;19.10;61.30;;;;;;4994738;28;20046;-14
2022/03/14 12:06:08;;;;;;;0.47;0.32;;;19.10;61.30;;;;;;5010193;28;20041;-14
2022/03/14 12:08:36;;;;;;;0.50;0.50;;;19.10;62.10;;;;;;4994724;28;20053;-14
2022/03/14 12:11:34;;;;;;;0.50;0.45;;;19.10;61.20;;;;;;4991808;28;20073;-14
2022/03/14 12:14:00;;;;;;;0.55;0.50;;;19.10;61.20;;;;;;4992550;28;20050;-14
2022/03/14 12:16:40;;;;;;;1.60;0.40;;;19.10;61.10;;;;;;4985557;28;20039;-14
2022/03/14 12:19:31;;;;;;;1.45;0.45;;;19.10;61.10;;;;;;4973588;28;20055;-14
2022/03/14 12:21:58;;;;;;;1.67;0.40;;;19.20;60.80;;;;;;4994500;28;20077;-14
2022/03/14 12:24:36;;;;;;;0.63;0.60;;;19.20;61.10;;;;;;4994670;28;20038;-13
2022/03/14 12:27:16;;;;;;;0.60;0.40;;;19.10;61.10;;;;;;4998741;28;20129;-13
2022/03/14 12:29:42;;;;;;;0.30;0.30;;;19.10;61.10;;;;;;4997512;28;20104;-13
2022/03/14 12:32:38;;;;;;;1.30;0.50;;;19.10;61.10;;;;;;4983813;28;20054;-12
2022/03/14 12:35:16;;;;;;;0.30;0.30;;;19.10;61.00;;;;;;4989583;28;20069;-13
2022/03/14 12:37:50;;;;;;;0.40;0.40;;;19.10;61.10;;;;;;4997207;28;20124;-13
2022/03/14 12:40:21;;;;;;;0.68;0.35;;;19.10;60.90;;;;;;4998700;28;20077;-14
2022/03/14 12:43:12;;;;;;;0.40;0.32;;;19.10;60.90;;;;;;4997613;28;20074;-13
2022/03/14 12:45:47;;;;;;;0.50;0.43;;;19.10;61.10;;;;;;4995515;28;20458;-12